Time;durP1;ratioP1;P1;durP2;ratioP2;P2;SDS_P1;SDS_P2;PMS_P1;PMS_P2;Temp;Humidity;BMP_temperature;BMP_pressure;BME280_temperature;BME280_humidity;BME280_pressure;Samples;Min_cycle;Max_cycle;Signal;HPM_P1;HPM_P2
2024/01/18 00:00:56;;;;;;;20.63;12.93;;;-0.70;99.90;;;;;;5160663;28;20214;-53
2024/01/18 00:03:27;;;;;;;29.80;14.40;;;-0.60;99.90;;;;;;5151396;28;20182;-52
2024/01/18 00:05:57;;;;;;;26.77;14.00;;;-0.80;99.90;;;;;;5160147;28;20193;-54
2024/01/18 00:08:28;;;;;;;26.60;13.80;;;-0.70;99.90;;;;;;5148537;28;20194;-54
2024/01/18 00:11:00;;;;;;;28.13;15.37;;;-0.70;99.90;;;;;;5152789;28;20562;-54
2024/01/18 00:13:31;;;;;;;28.83;14.30;;;-0.60;99.90;;;;;;5145247;28;20193;-52
2024/01/18 00:16:02;;;;;;;22.17;13.20;;;-0.70;99.90;;;;;;5155623;28;20441;-53
2024/01/18 00:18:32;;;;;;;29.83;13.97;;;-0.70;99.90;;;;;;5148277;28;20189;-53
2024/01/18 00:21:04;;;;;;;27.23;14.13;;;-0.80;99.90;;;;;;5157114;28;20206;-53
2024/01/18 00:23:35;;;;;;;33.87;15.30;;;-0.80;99.90;;;;;;5159706;28;20238;-53
2024/01/18 00:26:06;;;;;;;25.77;14.17;;;-0.80;99.90;;;;;;5157533;28;20906;-53
2024/01/18 00:28:37;;;;;;;23.83;13.60;;;-0.80;99.90;;;;;;5157825;28;20324;-53
2024/01/18 00:31:07;;;;;;;30.90;15.30;;;-0.90;99.90;;;;;;5157497;28;20537;-53
2024/01/18 00:33:39;;;;;;;28.80;14.50;;;-0.90;99.90;;;;;;5154384;28;20192;-53
2024/01/18 00:36:10;;;;;;;24.63;13.60;;;-1.00;99.90;;;;;;5170604;28;20202;-54
2024/01/18 00:38:41;;;;;;;26.43;14.30;;;-1.00;99.90;;;;;;5153893;28;20967;-54
2024/01/18 00:41:12;;;;;;;23.90;13.87;;;-1.00;99.90;;;;;;5153250;28;20455;-54
2024/01/18 00:43:42;;;;;;;24.03;14.27;;;-0.80;99.90;;;;;;5161003;28;20975;-53
2024/01/18 00:46:13;;;;;;;24.37;14.23;;;-0.90;99.90;;;;;;5150664;28;20967;-53
2024/01/18 00:48:44;;;;;;;27.90;14.17;;;-0.90;99.90;;;;;;5148986;28;20709;-52
2024/01/18 00:51:14;;;;;;;27.23;14.53;;;-0.80;99.90;;;;;;5152301;28;20261;-55
2024/01/18 00:53:45;;;;;;;35.53;15.07;;;-0.80;99.90;;;;;;5152755;28;20199;-52
2024/01/18 00:56:15;;;;;;;29.93;14.50;;;-0.80;99.90;;;;;;5156667;28;20300;-54
2024/01/18 00:58:47;;;;;;;32.10;14.40;;;-0.80;99.90;;;;;;5158871;28;20214;-53
2024/01/18 01:01:17;;;;;;;20.63;12.70;;;-0.90;99.90;;;;;;5137462;28;20210;-54
2024/01/18 01:03:48;;;;;;;22.90;13.50;;;-0.90;99.90;;;;;;5157000;28;20443;-52
2024/01/18 01:06:18;;;;;;;22.00;13.30;;;-0.80;99.90;;;;;;5156400;28;20683;-52
2024/01/18 01:08:49;;;;;;;27.50;13.50;;;-0.80;99.90;;;;;;5160019;28;20260;-52
2024/01/18 01:11:20;;;;;;;31.53;14.10;;;-0.90;99.90;;;;;;5151553;28;20594;-53
2024/01/18 01:13:50;;;;;;;27.40;14.00;;;-0.80;99.90;;;;;;5152315;28;20193;-53
2024/01/18 01:16:21;;;;;;;20.37;12.10;;;-0.70;99.90;;;;;;5157964;28;20972;-54
2024/01/18 01:18:52;;;;;;;25.23;12.63;;;-0.70;99.90;;;;;;5156818;28;20189;-54
2024/01/18 01:21:22;;;;;;;29.90;13.27;;;-0.70;99.90;;;;;;5151300;28;20434;-52
2024/01/18 01:23:54;;;;;;;24.97;13.03;;;-0.70;99.90;;;;;;5155286;28;20193;-54
2024/01/18 01:26:24;;;;;;;34.47;15.53;;;-0.70;99.90;;;;;;5153094;28;20205;-54
2024/01/18 01:28:55;;;;;;;23.87;13.53;;;-0.70;99.90;;;;;;5148778;28;20439;-54
2024/01/18 01:31:25;;;;;;;24.20;14.03;;;-0.70;99.90;;;;;;5148684;28;20220;-54
2024/01/18 01:33:56;;;;;;;21.40;13.87;;;-0.80;99.90;;;;;;5154648;28;20182;-52
2024/01/18 01:36:26;;;;;;;22.57;12.77;;;-0.80;99.90;;;;;;5152399;28;20593;-53
2024/01/18 01:38:57;;;;;;;22.67;12.93;;;-0.80;99.90;;;;;;5150999;28;20276;-53
2024/01/18 01:41:28;;;;;;;24.17;13.33;;;-0.70;99.90;;;;;;5145588;28;20537;-54
2024/01/18 01:44:00;;;;;;;21.23;13.03;;;-0.80;99.90;;;;;;5140793;28;20181;-53
2024/01/18 01:46:30;;;;;;;22.83;13.27;;;-0.80;99.90;;;;;;5149869;28;20209;-52
2024/01/18 01:49:04;;;;;;;29.50;13.90;;;-0.80;99.90;;;;;;5159823;28;20431;-54
2024/01/18 01:51:48;;;;;;;21.63;11.97;;;-0.80;99.90;;;;;;5154837;28;20590;-54
2024/01/18 01:54:20;;;;;;;27.03;13.57;;;-0.90;99.90;;;;;;5148756;28;21092;-52
2024/01/18 01:56:53;;;;;;;22.93;13.30;;;-0.70;99.90;;;;;;5150385;28;20471;-54
2024/01/18 01:59:25;;;;;;;27.00;13.90;;;-0.80;99.90;;;;;;5158297;28;20959;-53
2024/01/18 02:01:57;;;;;;;22.97;13.13;;;-0.70;99.90;;;;;;5150006;28;20470;-53
2024/01/18 02:04:29;;;;;;;26.40;12.87;;;-0.70;99.90;;;;;;5154905;28;20521;-52
2024/01/18 02:07:00;;;;;;;26.13;14.00;;;-0.70;99.90;;;;;;5151651;28;20443;-54
2024/01/18 02:09:31;;;;;;;19.80;12.57;;;-0.80;99.90;;;;;;5155635;28;20949;-53
2024/01/18 02:12:03;;;;;;;25.30;12.60;;;-0.80;99.90;;;;;;5155393;28;20272;-53
2024/01/18 02:14:35;;;;;;;38.13;12.40;;;-0.80;99.90;;;;;;5146345;28;20188;-53
2024/01/18 02:17:06;;;;;;;33.97;13.73;;;-0.70;99.90;;;;;;5144428;28;20448;-53
2024/01/18 02:19:36;;;;;;;22.70;13.40;;;-0.70;99.90;;;;;;5155214;28;20436;-54
2024/01/18 02:22:09;;;;;;;25.57;12.53;;;-0.70;99.90;;;;;;5157844;28;20465;-53
2024/01/18 02:24:45;;;;;;;27.90;13.80;;;-0.70;99.90;;;;;;5151297;28;20181;-53
2024/01/18 02:27:16;;;;;;;18.63;11.93;;;-0.60;99.90;;;;;;5148993;28;20815;-53
2024/01/18 02:29:48;;;;;;;23.20;13.10;;;-0.70;99.90;;;;;;5157558;28;20440;-54
2024/01/18 02:32:18;;;;;;;18.60;12.23;;;-0.60;99.90;;;;;;5155908;28;20197;-54
2024/01/18 02:34:49;;;;;;;19.47;12.33;;;-0.60;99.90;;;;;;5149961;28;20444;-53
2024/01/18 02:37:20;;;;;;;15.83;11.67;;;-0.60;99.90;;;;;;5154421;28;20623;-54
2024/01/18 02:39:52;;;;;;;21.57;12.77;;;-0.60;99.90;;;;;;5144899;28;20211;-53
2024/01/18 02:42:22;;;;;;;17.47;12.43;;;-0.60;99.90;;;;;;5154160;28;20220;-52
2024/01/18 02:44:55;;;;;;;20.60;11.93;;;-0.60;99.90;;;;;;5151618;28;20440;-53
2024/01/18 02:47:27;;;;;;;21.40;11.83;;;-0.60;99.90;;;;;;5147452;28;20685;-54
2024/01/18 02:49:58;;;;;;;24.07;12.60;;;-0.70;99.90;;;;;;5145604;28;20434;-53
2024/01/18 02:52:28;;;;;;;20.77;13.10;;;-0.70;99.90;;;;;;5145384;28;20443;-54
2024/01/18 02:54:59;;;;;;;24.10;13.50;;;-0.70;99.90;;;;;;5153069;28;20181;-54
2024/01/18 02:57:30;;;;;;;25.30;13.20;;;-0.80;99.90;;;;;;5149318;28;20592;-53
2024/01/18 03:00:00;;;;;;;22.97;13.27;;;-0.70;99.90;;;;;;5144964;28;20183;-53
2024/01/18 03:02:31;;;;;;;23.07;12.80;;;-0.80;99.90;;;;;;5151664;28;20216;-53
2024/01/18 03:05:02;;;;;;;19.20;11.73;;;-0.80;99.90;;;;;;5156971;28;20197;-54
2024/01/18 03:07:33;;;;;;;20.70;12.40;;;-0.80;99.90;;;;;;5159242;28;20297;-53
2024/01/18 03:10:04;;;;;;;24.03;12.70;;;-0.80;99.90;;;;;;5157523;28;20294;-54
2024/01/18 03:12:37;;;;;;;28.20;13.17;;;-0.70;99.90;;;;;;5156280;28;20433;-52
2024/01/18 03:15:12;;;;;;;23.30;12.63;;;-0.70;99.90;;;;;;5144880;28;20532;-53
2024/01/18 03:17:42;;;;;;;19.10;12.80;;;-0.80;99.90;;;;;;5150641;28;20482;-53
2024/01/18 03:20:13;;;;;;;22.50;12.97;;;-0.80;99.90;;;;;;5163668;28;20922;-54
2024/01/18 03:22:43;;;;;;;21.67;13.27;;;-0.80;99.90;;;;;;5144844;28;20188;-54
2024/01/18 03:25:14;;;;;;;30.07;13.60;;;-0.80;99.90;;;;;;5152337;28;20182;-53
2024/01/18 03:27:45;;;;;;;22.50;14.57;;;-0.80;99.90;;;;;;5149792;28;20224;-53
2024/01/18 03:30:15;;;;;;;23.73;13.73;;;-0.90;99.90;;;;;;5147631;28;20193;-54
2024/01/18 03:32:46;;;;;;;23.80;13.43;;;-1.00;99.90;;;;;;5149675;28;20198;-53
2024/01/18 03:35:18;;;;;;;24.53;13.67;;;-1.00;99.90;;;;;;5146085;28;20194;-54
2024/01/18 03:37:48;;;;;;;27.87;13.70;;;-0.90;99.90;;;;;;5145267;28;20526;-52
2024/01/18 03:40:19;;;;;;;24.70;14.53;;;-1.00;99.90;;;;;;5151946;28;20446;-52
2024/01/18 03:42:49;;;;;;;25.67;14.50;;;-1.00;99.90;;;;;;5146916;28;20174;-53
2024/01/18 03:45:20;;;;;;;23.10;13.63;;;-1.00;99.90;;;;;;5144303;28;20192;-55
2024/01/18 03:47:51;;;;;;;25.70;14.37;;;-1.00;99.90;;;;;;5214218;22;20235;-49
2024/01/18 03:50:21;;;;;;;21.70;12.57;;;-1.10;99.90;;;;;;5238572;28;20193;-49
2024/01/18 03:52:52;;;;;;;19.83;13.10;;;-1.10;99.90;;;;;;5232424;28;20538;-50
2024/01/18 03:55:23;;;;;;;18.80;12.63;;;-1.10;99.90;;;;;;5242338;28;20213;-50
2024/01/18 03:57:53;;;;;;;28.73;14.90;;;-1.10;99.90;;;;;;5235835;28;20198;-50
2024/01/18 04:00:24;;;;;;;24.80;14.43;;;-1.20;99.90;;;;;;5230219;28;20174;-50
2024/01/18 04:02:54;;;;;;;21.07;13.33;;;-1.10;99.90;;;;;;5228931;28;20268;-50
2024/01/18 04:05:25;;;;;;;29.97;14.93;;;-1.10;99.90;;;;;;5226936;28;20320;-50
2024/01/18 04:07:56;;;;;;;25.17;13.90;;;-1.10;99.90;;;;;;5229582;28;20199;-48
2024/01/18 04:10:26;;;;;;;31.83;15.57;;;-1.20;99.90;;;;;;5231764;28;20187;-49
2024/01/18 04:12:57;;;;;;;28.70;13.80;;;-1.20;99.90;;;;;;5225054;28;20183;-50
2024/01/18 04:15:28;;;;;;;37.37;15.27;;;-1.30;99.90;;;;;;5233280;28;20182;-51
2024/01/18 04:17:59;;;;;;;28.73;15.27;;;-1.20;99.90;;;;;;5227716;28;20460;-49
2024/01/18 04:20:30;;;;;;;25.40;14.60;;;-1.20;99.90;;;;;;5228149;28;20440;-50
2024/01/18 04:23:01;;;;;;;23.03;13.47;;;-1.20;99.90;;;;;;5227455;28;20286;-50
2024/01/18 04:25:31;;;;;;;22.30;14.27;;;-1.30;99.90;;;;;;5222725;28;20520;-50
2024/01/18 04:28:02;;;;;;;28.60;13.47;;;-1.30;99.90;;;;;;5226663;28;20249;-50
2024/01/18 04:30:33;;;;;;;28.70;14.43;;;-1.30;99.90;;;;;;5228016;28;21247;-50
2024/01/18 04:33:04;;;;;;;26.93;13.17;;;-1.20;99.90;;;;;;5226183;28;20175;-53
2024/01/18 04:35:34;;;;;;;26.00;15.27;;;-1.30;99.90;;;;;;5227598;28;20540;-50
2024/01/18 04:38:06;;;;;;;21.43;14.40;;;-1.30;99.90;;;;;;5226782;28;20820;-50
2024/01/18 04:40:37;;;;;;;22.17;13.50;;;-1.30;99.90;;;;;;5227825;28;20282;-49
2024/01/18 04:43:07;;;;;;;22.00;14.40;;;-1.30;99.90;;;;;;5233451;28;20831;-51
2024/01/18 04:45:38;;;;;;;29.20;14.27;;;-1.20;99.90;;;;;;5227041;28;20179;-50
2024/01/18 04:48:09;;;;;;;34.27;14.83;;;-1.20;99.90;;;;;;5226403;28;20234;-50
2024/01/18 04:50:39;;;;;;;22.13;14.20;;;-1.20;99.90;;;;;;5226191;28;20237;-49
2024/01/18 04:53:10;;;;;;;26.17;15.50;;;-1.20;99.90;;;;;;5230717;28;20437;-51
2024/01/18 04:55:43;;;;;;;27.33;14.60;;;-1.20;99.90;;;;;;5227750;28;20183;-50
2024/01/18 04:58:13;;;;;;;24.93;14.90;;;-1.20;99.90;;;;;;5236246;28;20274;-49
2024/01/18 05:00:44;;;;;;;25.23;14.60;;;-1.20;99.90;;;;;;5225894;28;20477;-51
2024/01/18 05:03:15;;;;;;;29.53;16.60;;;-1.30;99.90;;;;;;5224130;28;20175;-51
2024/01/18 05:05:46;;;;;;;31.90;14.90;;;-1.20;99.90;;;;;;5227820;28;20471;-50
2024/01/18 05:08:16;;;;;;;33.03;16.87;;;-1.30;99.90;;;;;;5226120;28;20671;-50
2024/01/18 05:10:47;;;;;;;25.10;15.57;;;-1.20;99.90;;;;;;5224615;28;20318;-49
2024/01/18 05:13:17;;;;;;;27.73;15.47;;;-1.20;99.90;;;;;;5230203;28;20191;-51
2024/01/18 05:15:48;;;;;;;39.87;17.80;;;-1.20;99.90;;;;;;5229043;28;20573;-50
2024/01/18 05:18:20;;;;;;;28.20;16.93;;;-1.30;99.90;;;;;;5227114;28;20214;-49
2024/01/18 05:20:50;;;;;;;29.53;15.00;;;-1.30;99.90;;;;;;5230389;28;20198;-48
2024/01/18 05:23:21;;;;;;;31.20;16.47;;;-1.30;99.90;;;;;;5234765;28;20472;-49
2024/01/18 05:25:52;;;;;;;29.57;17.57;;;-1.30;99.90;;;;;;5234896;28;20265;-49
2024/01/18 05:28:23;;;;;;;33.77;18.33;;;-1.40;99.90;;;;;;5226086;28;20739;-49
2024/01/18 05:30:55;;;;;;;30.60;15.30;;;-1.30;99.90;;;;;;5204685;28;20188;-50
2024/01/18 05:33:27;;;;;;;31.00;15.30;;;-1.40;99.90;;;;;;5227062;28;20450;-50
2024/01/18 05:35:57;;;;;;;24.70;14.50;;;-1.40;99.90;;;;;;5230130;28;20440;-50
2024/01/18 05:38:32;;;;;;;32.20;16.03;;;-1.40;99.90;;;;;;5222496;28;20477;-50
2024/01/18 05:41:03;;;;;;;25.23;15.40;;;-1.40;99.90;;;;;;5228331;28;20204;-50
2024/01/18 05:43:34;;;;;;;28.10;15.57;;;-1.30;99.90;;;;;;5225032;28;20428;-50
2024/01/18 05:46:05;;;;;;;29.00;16.53;;;-1.40;99.90;;;;;;5223605;28;20179;-50
2024/01/18 05:48:36;;;;;;;26.00;16.10;;;-1.30;99.90;;;;;;5227014;28;20218;-49
2024/01/18 05:51:07;;;;;;;29.77;16.90;;;-1.30;99.90;;;;;;5227419;28;20842;-48
2024/01/18 05:53:38;;;;;;;29.70;15.63;;;-1.30;99.90;;;;;;5226228;28;20183;-48
2024/01/18 05:56:09;;;;;;;27.67;15.77;;;-1.30;99.90;;;;;;5227717;28;20441;-49
2024/01/18 05:58:40;;;;;;;34.03;17.90;;;-1.30;99.90;;;;;;5226931;28;20421;-50
2024/01/18 06:01:11;;;;;;;35.63;16.30;;;-1.30;99.90;;;;;;5225632;28;20465;-50
2024/01/18 06:03:42;;;;;;;33.60;17.43;;;-1.20;99.90;;;;;;5225775;28;20876;-49
2024/01/18 06:06:12;;;;;;;34.17;17.07;;;-1.30;99.90;;;;;;5224232;28;20183;-49
2024/01/18 06:08:43;;;;;;;30.03;16.93;;;-1.40;99.90;;;;;;5224991;28;20305;-49
2024/01/18 06:11:14;;;;;;;35.20;17.30;;;-1.40;99.90;;;;;;5225996;28;20663;-50
2024/01/18 06:13:45;;;;;;;30.70;16.33;;;-1.40;99.90;;;;;;5227851;28;20668;-50
2024/01/18 06:16:15;;;;;;;25.17;16.87;;;-1.40;99.90;;;;;;5227914;28;20536;-49
2024/01/18 06:18:46;;;;;;;27.63;15.67;;;-1.40;99.90;;;;;;5226575;28;20219;-50
2024/01/18 06:21:16;;;;;;;29.53;16.70;;;-1.50;99.90;;;;;;5223819;28;20401;-50
2024/01/18 06:23:49;;;;;;;35.80;17.70;;;-1.40;99.90;;;;;;5227501;28;20699;-49
2024/01/18 06:26:19;;;;;;;32.30;17.20;;;-1.40;99.90;;;;;;5225797;28;20624;-49
2024/01/18 06:28:50;;;;;;;34.17;17.00;;;-1.40;99.90;;;;;;5230290;28;20516;-49
2024/01/18 06:31:26;;;;;;;27.93;17.43;;;-1.40;99.90;;;;;;5220312;28;20196;-49
2024/01/18 06:33:56;;;;;;;26.60;15.90;;;-1.40;99.90;;;;;;5223718;28;20194;-50
2024/01/18 06:36:27;;;;;;;27.37;16.00;;;-1.40;99.90;;;;;;5223814;28;20981;-49
2024/01/18 06:38:58;;;;;;;25.87;15.40;;;-1.40;99.90;;;;;;5228722;28;20191;-50
2024/01/18 06:41:28;;;;;;;35.20;16.17;;;-1.40;99.90;;;;;;5218764;28;20215;-50
2024/01/18 06:43:59;;;;;;;35.00;17.60;;;-1.40;99.90;;;;;;5222515;28;20184;-51
2024/01/18 06:46:31;;;;;;;34.53;18.97;;;-1.40;99.90;;;;;;5221332;28;20729;-50
2024/01/18 06:49:02;;;;;;;36.40;17.00;;;-1.40;99.90;;;;;;5224592;28;20206;-51
2024/01/18 06:51:33;;;;;;;47.50;16.73;;;-1.30;99.90;;;;;;5224011;28;20445;-50
2024/01/18 06:54:03;;;;;;;37.60;17.07;;;-1.30;99.90;;;;;;5225185;28;20492;-51
2024/01/18 06:56:34;;;;;;;34.87;18.30;;;-1.40;99.90;;;;;;5222625;28;20229;-50
2024/01/18 06:59:05;;;;;;;34.80;17.93;;;-1.40;99.90;;;;;;5224657;28;20253;-53
2024/01/18 07:01:36;;;;;;;39.67;17.47;;;-1.50;99.90;;;;;;5222605;28;20215;-50
2024/01/18 07:04:06;;;;;;;31.70;16.20;;;-1.60;99.90;;;;;;5225009;28;20456;-52
2024/01/18 07:06:37;;;;;;;36.50;19.23;;;-1.70;99.90;;;;;;5224545;28;20207;-50
2024/01/18 07:09:08;;;;;;;34.90;19.43;;;-1.70;99.90;;;;;;5224343;28;20655;-50
2024/01/18 07:11:39;;;;;;;40.13;19.03;;;-1.80;99.90;;;;;;5223079;28;20202;-50
2024/01/18 07:14:09;;;;;;;33.10;18.10;;;-1.90;99.90;;;;;;5226693;28;20256;-48
2024/01/18 07:16:40;;;;;;;41.63;19.27;;;-1.90;99.90;;;;;;5225359;28;20445;-50
2024/01/18 07:19:11;;;;;;;36.33;19.30;;;-1.90;99.90;;;;;;5221654;28;20588;-49
2024/01/18 07:21:41;;;;;;;39.30;19.63;;;-2.00;99.90;;;;;;5219846;28;20676;-50
2024/01/18 07:24:12;;;;;;;37.37;19.63;;;-2.00;99.90;;;;;;5223429;28;20243;-49
2024/01/18 07:26:43;;;;;;;37.07;19.17;;;-2.00;99.90;;;;;;5229527;28;20201;-49
2024/01/18 07:29:13;;;;;;;34.47;19.13;;;-2.00;99.90;;;;;;5224123;28;20372;-51
2024/01/18 07:31:44;;;;;;;34.97;18.70;;;-2.00;99.90;;;;;;5227899;28;20788;-49
2024/01/18 07:34:18;;;;;;;31.83;18.20;;;-2.00;99.90;;;;;;5217514;28;20219;-50
2024/01/18 07:36:48;;;;;;;36.30;17.63;;;-1.90;99.90;;;;;;5222462;28;20203;-49
2024/01/18 07:39:19;;;;;;;33.10;17.33;;;-1.90;99.90;;;;;;5226315;28;20448;-51
2024/01/18 07:41:50;;;;;;;37.63;17.57;;;-1.80;99.90;;;;;;5219886;28;20203;-50
2024/01/18 07:44:20;;;;;;;38.50;20.03;;;-1.80;99.90;;;;;;5221116;28;20186;-50
2024/01/18 07:46:51;;;;;;;35.50;18.90;;;-1.70;99.90;;;;;;5222575;28;20205;-49
2024/01/18 07:49:22;;;;;;;37.70;20.67;;;-1.70;99.90;;;;;;5221949;28;20194;-50
2024/01/18 07:51:52;;;;;;;37.80;19.70;;;-1.60;99.90;;;;;;5220834;28;20253;-50
2024/01/18 07:54:23;;;;;;;37.80;19.80;;;-1.50;99.90;;;;;;5223585;28;20197;-49
2024/01/18 07:56:55;;;;;;;31.00;18.53;;;-1.40;99.90;;;;;;5223000;28;20568;-50
2024/01/18 07:59:25;;;;;;;42.80;20.20;;;-1.30;99.90;;;;;;5223559;28;20215;-50
2024/01/18 08:01:56;;;;;;;39.07;21.00;;;-1.20;99.90;;;;;;5218247;28;21075;-49
2024/01/18 08:04:28;;;;;;;35.87;19.57;;;-1.20;99.90;;;;;;5222034;28;20191;-50
2024/01/18 08:06:59;;;;;;;34.93;18.70;;;-1.10;99.90;;;;;;5227220;28;20202;-49
2024/01/18 08:09:30;;;;;;;35.27;18.67;;;-1.10;99.90;;;;;;5223755;28;20786;-52
2024/01/18 08:12:01;;;;;;;36.77;20.43;;;-1.00;99.90;;;;;;5225241;28;20591;-51
2024/01/18 08:14:32;;;;;;;32.53;17.87;;;-0.90;99.90;;;;;;5220304;28;20437;-49
2024/01/18 08:17:02;;;;;;;40.30;21.27;;;-0.80;99.90;;;;;;5222925;28;20571;-51
2024/01/18 08:19:33;;;;;;;38.37;19.23;;;-0.70;99.90;;;;;;5222354;28;20233;-51
2024/01/18 08:22:04;;;;;;;36.70;19.10;;;-0.50;99.90;;;;;;5221231;28;20210;-51
2024/01/18 08:24:36;;;;;;;33.37;18.60;;;-0.50;99.90;;;;;;5224628;28;20432;-50
2024/01/18 08:27:07;;;;;;;34.90;18.50;;;-0.40;99.90;;;;;;5224940;28;20199;-49
2024/01/18 08:29:38;;;;;;;25.73;16.93;;;-0.40;99.90;;;;;;5225307;28;20426;-50
2024/01/18 08:32:09;;;;;;;35.40;18.20;;;-0.30;99.90;;;;;;5224683;28;20429;-49
2024/01/18 08:34:39;;;;;;;35.43;19.27;;;-0.20;99.90;;;;;;5221524;28;20194;-48
2024/01/18 08:37:10;;;;;;;31.00;16.47;;;-0.10;99.90;;;;;;5224020;28;20299;-51
2024/01/18 08:39:40;;;;;;;29.07;16.67;;;0.10;99.90;;;;;;5223603;28;20180;-50
2024/01/18 08:42:11;;;;;;;32.47;17.97;;;0.30;99.90;;;;;;5229135;28;20208;-51
2024/01/18 08:44:45;;;;;;;27.77;16.37;;;0.40;99.90;;;;;;5226121;28;20182;-51
2024/01/18 08:47:16;;;;;;;34.53;18.63;;;0.40;99.90;;;;;;5223230;28;20211;-48
2024/01/18 08:49:47;;;;;;;40.13;17.10;;;0.50;99.90;;;;;;5225039;28;20503;-49
2024/01/18 08:52:19;;;;;;;37.23;18.90;;;0.60;99.90;;;;;;5225655;28;20182;-50
2024/01/18 08:54:49;;;;;;;34.50;17.30;;;0.60;99.90;;;;;;5226561;28;20194;-52
2024/01/18 08:57:20;;;;;;;32.30;17.80;;;0.70;99.90;;;;;;5226393;28;20465;-51
2024/01/18 08:59:50;;;;;;;30.90;17.00;;;0.80;99.90;;;;;;5217349;28;20522;-52
2024/01/18 09:02:21;;;;;;;30.77;18.50;;;0.90;99.90;;;;;;5207241;28;20218;-50
2024/01/18 09:04:52;;;;;;;31.17;17.47;;;1.00;99.90;;;;;;5225139;28;20178;-49
2024/01/18 09:07:23;;;;;;;33.07;15.30;;;1.20;99.90;;;;;;5226649;28;20270;-51
2024/01/18 09:09:54;;;;;;;35.40;16.60;;;1.30;99.90;;;;;;5227207;28;20233;-50
2024/01/18 09:12:25;;;;;;;23.13;14.77;;;1.20;99.90;;;;;;5234437;28;20567;-51
2024/01/18 09:14:56;;;;;;;32.40;19.07;;;1.10;99.90;;;;;;5224170;28;20218;-53
2024/01/18 09:17:27;;;;;;;28.73;18.40;;;1.10;99.90;;;;;;5223346;28;20897;-48
2024/01/18 09:19:58;;;;;;;31.60;18.10;;;1.10;99.90;;;;;;5227181;28;20428;-49
2024/01/18 09:22:28;;;;;;;24.83;15.17;;;1.00;99.90;;;;;;5225705;28;20313;-50
2024/01/18 09:24:59;;;;;;;32.67;19.13;;;0.80;99.90;;;;;;5228852;28;20189;-49
2024/01/18 09:27:30;;;;;;;33.50;18.30;;;0.80;99.90;;;;;;5229082;28;20205;-51
2024/01/18 09:30:00;;;;;;;28.80;17.40;;;0.90;99.90;;;;;;5222336;28;20558;-51
2024/01/18 09:32:31;;;;;;;31.30;18.00;;;0.80;99.90;;;;;;5224128;28;20193;-49
2024/01/18 09:35:05;;;;;;;31.87;18.53;;;0.80;99.90;;;;;;5225657;28;20183;-51
2024/01/18 09:37:36;;;;;;;36.00;19.20;;;0.90;99.90;;;;;;5225508;28;20206;-51
2024/01/18 09:40:11;;;;;;;31.03;18.07;;;0.80;99.90;;;;;;5226881;28;20486;-51
2024/01/18 09:42:47;;;;;;;37.23;18.40;;;0.70;99.90;;;;;;5220747;28;20206;-50
2024/01/18 09:45:22;;;;;;;33.13;18.90;;;0.70;99.90;;;;;;5221637;28;20847;-51
2024/01/18 09:47:53;;;;;;;37.30;19.53;;;0.70;99.90;;;;;;5197120;22;20500;-53
2024/01/18 09:50:24;;;;;;;39.63;18.17;;;0.60;99.90;;;;;;5162750;28;20463;-51
2024/01/18 09:52:54;;;;;;;36.30;18.80;;;0.60;99.90;;;;;;5155511;28;21027;-49
2024/01/18 09:55:25;;;;;;;28.10;18.50;;;0.60;99.90;;;;;;5149302;28;20667;-51
2024/01/18 09:57:58;;;;;;;36.50;19.77;;;0.70;99.90;;;;;;5137960;28;20382;-51
2024/01/18 10:00:32;;;;;;;29.53;18.10;;;0.50;99.90;;;;;;5133019;28;20192;-50
2024/01/18 10:03:03;;;;;;;34.17;18.50;;;0.60;99.90;;;;;;5144935;28;20469;-51
2024/01/18 10:05:36;;;;;;;39.67;19.83;;;0.70;99.90;;;;;;5151826;28;20445;-51
2024/01/18 10:08:06;;;;;;;33.90;17.13;;;0.70;99.90;;;;;;5147906;28;20467;-51
2024/01/18 10:10:37;;;;;;;34.57;19.50;;;0.60;99.90;;;;;;5145865;28;20441;-49
2024/01/18 10:13:13;;;;;;;34.00;20.63;;;0.40;99.90;;;;;;5153006;28;20197;-52
2024/01/18 10:15:44;;;;;;;34.00;18.87;;;0.50;99.90;;;;;;5150177;28;20642;-51
2024/01/18 10:18:14;;;;;;;36.30;19.57;;;0.50;99.90;;;;;;5153106;28;20470;-52
2024/01/18 10:20:47;;;;;;;39.07;20.00;;;0.50;99.90;;;;;;5155331;28;20189;-50
2024/01/18 10:23:18;;;;;;;36.47;19.37;;;0.50;99.90;;;;;;5163048;28;20238;-50
2024/01/18 10:25:49;;;;;;;30.53;18.80;;;0.50;99.90;;;;;;5150127;28;20452;-51
2024/01/18 10:28:20;;;;;;;29.80;18.00;;;0.60;99.90;;;;;;5147338;28;20465;-50
2024/01/18 10:30:53;;;;;;;37.37;19.30;;;0.70;99.90;;;;;;5155542;28;20188;-50
2024/01/18 10:33:24;;;;;;;31.90;18.27;;;0.70;99.90;;;;;;5145677;28;20250;-49
2024/01/18 10:35:55;;;;;;;32.80;20.40;;;0.70;99.90;;;;;;5151451;28;20833;-51
2024/01/18 10:38:38;;;;;;;33.30;17.97;;;0.70;99.90;;;;;;5152104;28;20226;-53
2024/01/18 10:41:09;;;;;;;31.20;18.33;;;0.80;99.90;;;;;;5158098;28;20200;-50
2024/01/18 10:43:40;;;;;;;38.93;20.00;;;0.90;99.90;;;;;;5150964;28;20467;-50
2024/01/18 10:46:11;;;;;;;30.03;19.50;;;1.00;99.90;;;;;;5131216;28;20437;-50
2024/01/18 10:48:46;;;;;;;48.53;20.50;;;1.10;99.90;;;;;;5145462;28;20304;-51
2024/01/18 10:51:17;;;;;;;39.20;19.13;;;1.00;99.90;;;;;;5156426;28;20217;-52
2024/01/18 10:53:50;;;;;;;32.13;19.33;;;1.00;99.90;;;;;;5150338;28;20483;-51
2024/01/18 10:56:23;;;;;;;38.37;23.13;;;1.10;99.90;;;;;;5147202;28;20432;-49
2024/01/18 10:58:53;;;;;;;41.60;22.67;;;1.10;99.90;;;;;;5152336;28;20451;-51
2024/01/18 11:01:25;;;;;;;32.27;17.13;;;1.10;99.90;;;;;;5150106;28;20959;-51
2024/01/18 11:03:56;;;;;;;37.33;19.50;;;1.10;99.90;;;;;;5146715;28;20210;-50
2024/01/18 11:06:27;;;;;;;31.07;18.10;;;1.20;99.90;;;;;;5160783;28;20477;-50
2024/01/18 11:08:59;;;;;;;32.00;17.70;;;1.10;99.90;;;;;;5153301;28;20807;-50
2024/01/18 11:11:31;;;;;;;42.33;20.33;;;1.10;99.90;;;;;;5147283;28;20429;-52
2024/01/18 11:14:01;;;;;;;30.20;18.23;;;1.00;99.90;;;;;;5152325;28;20448;-51
2024/01/18 11:16:32;;;;;;;35.17;19.97;;;0.90;99.90;;;;;;5156829;28;20526;-52
2024/01/18 11:19:03;;;;;;;29.73;18.03;;;1.00;99.90;;;;;;5156325;28;20197;-50
2024/01/18 11:21:43;;;;;;;27.83;17.53;;;0.90;99.90;;;;;;5152288;28;20209;-53
2024/01/18 11:24:14;;;;;;;38.93;19.00;;;1.00;99.90;;;;;;5158029;28;20213;-52
2024/01/18 11:26:45;;;;;;;30.97;17.30;;;1.00;99.90;;;;;;5154601;28;20440;-52
2024/01/18 11:29:21;;;;;;;33.60;18.90;;;1.10;99.90;;;;;;5145883;28;20439;-51
2024/01/18 11:31:52;;;;;;;36.00;19.30;;;1.10;99.90;;;;;;5149088;28;20181;-52
2024/01/18 11:34:36;;;;;;;32.03;18.37;;;1.10;99.90;;;;;;5154030;28;21114;-50
2024/01/18 11:37:14;;;;;;;30.67;17.73;;;1.10;99.90;;;;;;5148638;28;20251;-49
2024/01/18 11:39:48;;;;;;;35.97;19.20;;;1.10;99.90;;;;;;5146412;28;20449;-50
2024/01/18 11:42:22;;;;;;;37.40;19.83;;;1.10;99.90;;;;;;5148932;28;20781;-50
2024/01/18 11:45:00;;;;;;;29.90;19.00;;;1.00;99.90;;;;;;5145129;28;20857;-51
2024/01/18 11:47:32;;;;;;;33.80;19.87;;;0.90;99.90;;;;;;5154769;28;20521;-50
2024/01/18 11:50:05;;;;;;;28.80;18.43;;;0.90;99.90;;;;;;5146431;28;20484;-53
2024/01/18 11:52:38;;;;;;;31.03;17.53;;;0.80;99.90;;;;;;5154861;28;20962;-52
2024/01/18 11:55:11;;;;;;;36.93;20.10;;;0.80;99.90;;;;;;5149692;28;20456;-52
2024/01/18 11:57:42;;;;;;;42.27;21.70;;;0.60;99.90;;;;;;5145042;28;20461;-52
2024/01/18 12:00:16;;;;;;;41.00;20.03;;;0.50;99.90;;;;;;5140342;28;20468;-52
2024/01/18 12:02:47;;;;;;;33.30;19.07;;;0.30;99.90;;;;;;5154217;28;20225;-51
2024/01/18 12:05:17;;;;;;;30.67;18.57;;;0.40;99.90;;;;;;5150649;28;20530;-51
2024/01/18 12:07:49;;;;;;;37.83;19.17;;;0.30;99.90;;;;;;5148886;28;20217;-53
2024/01/18 12:10:20;;;;;;;41.27;19.77;;;0.20;99.90;;;;;;5148221;28;20203;-53
2024/01/18 12:12:51;;;;;;;34.80;19.67;;;0.10;99.90;;;;;;5159408;28;20438;-52
2024/01/18 12:15:24;;;;;;;47.37;19.90;;;0.00;99.90;;;;;;5159003;28;20440;-52
2024/01/18 12:17:55;;;;;;;44.23;20.37;;;-0.10;99.90;;;;;;5151183;28;20467;-52
2024/01/18 12:20:26;;;;;;;36.37;19.30;;;-0.10;99.90;;;;;;5158116;28;20861;-54
2024/01/18 12:22:59;;;;;;;36.90;19.13;;;-0.20;99.90;;;;;;5153767;28;20216;-51
2024/01/18 12:25:32;;;;;;;36.87;18.40;;;-0.20;99.90;;;;;;5160819;28;20188;-52
2024/01/18 12:28:03;;;;;;;28.50;17.80;;;-0.30;99.90;;;;;;5156059;28;20907;-52
2024/01/18 12:30:34;;;;;;;38.63;19.70;;;-0.30;99.90;;;;;;5152090;28;20448;-52
2024/01/18 12:33:06;;;;;;;44.10;19.63;;;-0.20;99.90;;;;;;5145456;28;20433;-51
2024/01/18 12:35:37;;;;;;;41.43;21.10;;;-0.20;99.90;;;;;;5152626;28;20654;-55
2024/01/18 12:38:08;;;;;;;38.30;21.10;;;0.00;99.90;;;;;;5149122;28;20470;-52
2024/01/18 12:40:38;;;;;;;36.50;20.37;;;0.00;99.90;;;;;;5147119;28;20468;-54
2024/01/18 12:43:09;;;;;;;35.00;20.60;;;0.00;99.90;;;;;;5153118;28;20825;-54
2024/01/18 12:45:42;;;;;;;39.47;18.23;;;0.10;99.90;;;;;;5150435;28;20188;-51
2024/01/18 12:48:13;;;;;;;31.60;18.27;;;0.20;99.90;;;;;;5157748;28;20233;-53
2024/01/18 12:50:44;;;;;;;38.87;18.60;;;0.10;99.90;;;;;;5147462;28;20432;-52